Terminal Aerodrome Forecast
Issued by NWS Sterling, VA

Current Version | Previous Version | Text Only | Print | Product List | Glossary Off
Versions: 1 2 3 4 5 6 7 8 9 10 11 12 13 14 15 16 17 18 19 20 21 22 23 24

603
FTUS41 KLWX 131720
TAFDCA
TAF
KDCA 131720Z 1318/1418 31019G35KT P6SM SCT050
     FM140100 31015G25KT P6SM SCT050
     FM140900 31010G20KT P6SM FEW200
     FM141600 32010KT P6SM FEW200=

USA.gov is the U.S. government's official web portal to all federal, state and local government web resources and services.